BBC Gdansk — V2EB2 — position and weather

sailwx.info

Track history (hours):
 
Tides and Currents Weather Stations Pressure Air Temp Water Temp Dewpoint Dewpoint Depression Visibility Wind Speed Wind Dir Waves Ship Positions

BBC Gdansk

Last reported at 2018-Jan-12 11:46 UTC. Time now 2018-Jan-19 01:14 UTC.
Position N 26°06' W 080°07'.

Length 122 m; draft 7.2 m.

Type: Cargo ship. MMSI: 305372000.

Date/timePositionNaut miles runAvg speedWind from/ knotsBaromVisibWave heightAir tempDewpointWater temp
2018-Jan-12 11:46N 26°06' W 080°07'0 0.0
2018-Jan-12 11:28N 26°06' W 080°07'0 0.0
2018-Jan-12 09:07N 26°06' W 080°07'0 0.0
2018-Jan-12 08:52N 26°06' W 080°07'0 0.0
2018-Jan-12 08:22N 26°06' W 080°07'0 0.0
2018-Jan-11 11:28N 26°06' W 080°07'0 0.0
2018-Jan-11 09:25N 26°06' W 080°07'0 0.0
2018-Jan-11 08:57N 26°06' W 080°07'0 0.4
2018-Jan-11 08:30N 26°06' W 080°07'3 5.3
2018-Jan-11 08:01N 26°06' W 080°04'1 1.9
2018-Jan-11 07:30N 26°07' W 080°04'0 0.0
2018-Jan-11 06:57N 26°07' W 080°04'0 0.0
2018-Jan-11 06:30N 26°07' W 080°04'0 0.0
2018-Jan-11 06:00N 26°07' W 080°04'0 0.0
2018-Jan-11 05:30N 26°07' W 080°04'0 0.0
2018-Jan-11 05:00N 26°07' W 080°04'0 0.0
2018-Jan-11 04:30N 26°07' W 080°04'0 0.0
2018-Jan-11 04:00N 26°07' W 080°04'0 0.0
2018-Jan-11 03:30N 26°07' W 080°04'0 0.0
2018-Jan-11 03:00N 26°07' W 080°04'0 0.0
2018-Jan-11 02:30N 26°07' W 080°04'0 0.0
2018-Jan-11 02:00N 26°07' W 080°04'0 0.1
2018-Jan-11 01:30N 26°07' W 080°04'0 0.0
2018-Jan-11 01:00N 26°07' W 080°04'0 0.1
2018-Jan-11 00:30N 26°07' W 080°04'3 6.0
2018-Jan-11 00:00N 26°08' W 080°01'511.1
2018-Jan-10 23:30N 26°08' W 079°55'510.7
2018-Jan-10 23:00N 26°09' W 079°49'510.5
2018-Jan-10 22:30N 26°09' W 079°43'510.5
2018-Jan-10 22:00N 26°09' W 079°37'510.3
2018-Jan-10 21:30N 26°10' W 079°32'510.5
2018-Jan-10 21:01N 26°11' W 079°26'610.9
2018-Jan-10 20:30N 26°12' W 079°20'  
2018-Jan-06 23:20N 18°16' W 063°30'411.5
2018-Jan-06 22:59N 18°14' W 063°27'612.0
2018-Jan-06 22:30N 18°10' W 063°22'612.1
2018-Jan-06 22:00N 18°06' W 063°17'712.2
2018-Jan-06 21:26N 18°02' W 063°11'612.3
2018-Jan-06 20:58N 18°01' W 063°06'3 6.3
2018-Jan-06 20:30N 18°00' W 063°03'0 0.0
2018-Jan-06 19:55N 18°00' W 063°03'0 0.0
2018-Jan-06 19:25N 18°00' W 063°03'0 0.0
2018-Jan-06 18:58N 18°00' W 063°03'0 0.0
2018-Jan-06 18:25N 18°00' W 063°03'0 0.0
2018-Jan-06 17:58N 18°00' W 063°03'0 0.0
2018-Jan-06 17:25N 18°00' W 063°03'0 0.0
2018-Jan-06 16:55N 18°00' W 063°03'0 0.0
2018-Jan-06 16:28N 18°00' W 063°03'0 0.0
2018-Jan-06 15:58N 18°00' W 063°03'0 0.0
2018-Jan-06 15:28N 18°00' W 063°03'0 0.0
2018-Jan-06 14:58N 18°00' W 063°03'0 0.0
2018-Jan-06 14:16N 18°00' W 063°03'0 0.0
2018-Jan-06 13:58N 18°00' W 063°03'0 0.0
2018-Jan-06 13:28N 18°00' W 063°03'0 0.0
2018-Jan-06 12:49N 18°00' W 063°03'0 0.0
2018-Jan-06 12:04N 18°00' W 063°03'0 0.0
2018-Jan-06 11:49N 18°00' W 063°03'0 0.0
2018-Jan-06 11:19N 18°00' W 063°03'0 0.0
2018-Jan-06 10:52N 18°00' W 063°03'0 0.9
2018-Jan-06 10:28N 18°00' W 063°03'2 3.5
2018-Jan-06 09:53N 18°00' W 063°05'2 5.3
2018-Jan-06 09:27N 18°00' W 063°08'3 5.6
2018-Jan-06 08:59N 18°01' W 063°10'2 3.1
2018-Jan-06 08:20N 18°02' W 063°12'2 6.4
2018-Jan-06 08:01N 18°01' W 063°11'4 6.5
2018-Jan-06 07:27N 17°58' W 063°08'3 6.2
2018-Jan-06 07:00N 17°56' W 063°06'710.8
2018-Jan-06 06:19N 17°52' W 062°59'411.1
2018-Jan-06 05:58N 17°50' W 062°56'2410.9
2018-Jan-06 03:47N 17°36' W 062°36'310.9
2018-Jan-06 03:30N 17°35' W 062°33'510.8
2018-Jan-06 03:00N 17°32' W 062°28'510.8
2018-Jan-06 02:30N 17°29' W 062°23'510.9
2018-Jan-06 02:00N 17°26' W 062°19'611.2
2018-Jan-06 01:30N 17°23' W 062°14'611.1
2018-Jan-06 01:00N 17°19' W 062°09'510.8
2018-Jan-06 00:31N 17°16' W 062°05'510.7
2018-Jan-06 00:00N 17°13' W 061°60'4 7.5
2018-Jan-05 23:30N 17°11' W 061°57'5 9.9
2018-Jan-05 23:00N 17°08' W 061°53'1 2.6
2018-Jan-05 22:30N 17°08' W 061°51'0 0.0
2018-Jan-05 22:00N 17°08' W 061°51'0 0.0
2018-Jan-05 21:30N 17°08' W 061°51'0 0.0
2018-Jan-05 21:00N 17°08' W 061°51'0 0.0
2018-Jan-05 20:31N 17°08' W 061°51'0 0.0
2018-Jan-05 19:59N 17°08' W 061°51'0 0.0
2018-Jan-05 19:29N 17°08' W 061°51'0 0.0
2018-Jan-05 18:59N 17°08' W 061°51'0 0.0
2018-Jan-05 18:29N 17°08' W 061°51'0 0.0
2018-Jan-05 17:59N 17°08' W 061°51'0 0.0
2018-Jan-05 17:29N 17°08' W 061°51'0 0.0
2018-Jan-05 16:59N 17°08' W 061°51'0 0.0
2018-Jan-05 16:29N 17°08' W 061°51'0 0.0
2018-Jan-05 15:59N 17°08' W 061°51'0 0.0
2018-Jan-05 15:29N 17°08' W 061°51'0 0.0
2018-Jan-05 14:59N 17°08' W 061°51'0 0.0
2018-Jan-05 14:29N 17°08' W 061°51'0 0.0
2018-Jan-05 13:59N 17°08' W 061°51'0 0.0
2018-Jan-05 13:23N 17°08' W 061°51'0 0.0
2018-Jan-05 13:01N 17°08' W 061°51'0 0.0
2018-Jan-05 12:31N 17°08' W 061°51'0 0.0
2018-Jan-05 11:59N 17°08' W 061°51'0 0.0
2018-Jan-05 11:26N 17°08' W 061°51'0 0.0
2018-Jan-05 10:59N 17°08' W 061°51'0 0.1
2018-Jan-05 10:29N 17°07' W 061°51'0 0.0
2018-Jan-05 09:59N 17°07' W 061°51'0 0.0
2018-Jan-05 09:29N 17°07' W 061°51'0 0.0
2018-Jan-05 08:59N 17°07' W 061°51'0 0.0
2018-Jan-05 08:28N 17°07' W 061°51'0 0.0
2018-Jan-05 08:00N 17°07' W 061°51'0 0.0
2018-Jan-05 07:29N 17°07' W 061°51'0 0.0
2018-Jan-05 06:59N 17°07' W 061°51'0 0.0
2018-Jan-05 06:31N 17°07' W 061°51'0 0.0
2018-Jan-05 06:01N 17°07' W 061°51'0 0.0
2018-Jan-05 05:31N 17°07' W 061°51'0 0.0
2018-Jan-05 04:59N 17°07' W 061°51'0 0.0
2018-Jan-05 04:29N 17°07' W 061°51'0 0.0
2018-Jan-05 04:00N 17°07' W 061°51'0 0.0
2018-Jan-05 03:28N 17°07' W 061°51'0 0.0
2018-Jan-05 02:59N 17°07' W 061°51'0 0.0
2018-Jan-05 02:31N 17°07' W 061°51'0 0.0
2018-Jan-05 02:00N 17°07' W 061°51'0 0.0
2018-Jan-05 01:31N 17°07' W 061°51'0 0.0
2018-Jan-05 01:00N 17°07' W 061°51'0 0.0
2018-Jan-05 00:29N 17°07' W 061°51'0 0.0
2018-Jan-04 23:59N 17°07' W 061°51'0 0.0
2018-Jan-04 23:29N 17°07' W 061°51'0 0.0
2018-Jan-04 22:59N 17°07' W 061°51'0 0.0
2018-Jan-04 22:29N 17°07' W 061°51'0 0.0
2018-Jan-04 21:59N 17°07' W 061°51'0 0.0
2018-Jan-04 21:29N 17°07' W 061°51'0 0.0
2018-Jan-04 21:01N 17°07' W 061°51'0 0.0
2018-Jan-04 20:31N 17°07' W 061°51'0 0.0
2018-Jan-04 20:01N 17°07' W 061°51'0 0.0
2018-Jan-04 19:31N 17°07' W 061°51'0 0.0
2018-Jan-04 19:00N 17°07' W 061°51'0 0.0
2018-Jan-04 18:31N 17°07' W 061°51'0 0.0
2018-Jan-04 18:01N 17°07' W 061°51'0 0.0
2018-Jan-04 17:29N 17°07' W 061°51'0 0.0
2018-Jan-04 17:01N 17°07' W 061°51'0 0.0
2018-Jan-04 16:31N 17°07' W 061°51'0 0.0
2018-Jan-04 16:01N 17°07' W 061°51'0 0.1
2018-Jan-04 15:30N 17°07' W 061°51'0 0.1
2018-Jan-04 14:58N 17°08' W 061°51'0 0.0
2018-Jan-04 14:28N 17°08' W 061°51'0 0.0
2018-Jan-04 13:58N 17°08' W 061°51'0 0.1
2018-Jan-04 13:28N 17°07' W 061°51'0 0.1
2018-Jan-04 12:58N 17°08' W 061°51'0 0.0
2018-Jan-04 12:28N 17°08' W 061°51'0 0.0
2018-Jan-04 11:58N 17°08' W 061°51'0 0.0
2018-Jan-04 11:28N 17°08' W 061°51'0 0.0
2018-Jan-04 10:58N 17°08' W 061°51'0 0.0
2018-Jan-04 10:28N 17°08' W 061°51'0 0.0
2018-Jan-04 09:58N 17°08' W 061°51'0 0.0
2018-Jan-04 09:28N 17°08' W 061°51'0 0.0
2018-Jan-04 08:58N 17°08' W 061°51'0 0.0
2018-Jan-04 08:28N 17°08' W 061°51'0 0.0
2018-Jan-04 07:58N 17°08' W 061°51'0 0.0
2018-Jan-04 07:28N 17°08' W 061°51'0 0.0
2018-Jan-04 06:58N 17°08' W 061°51'0 0.0
2018-Jan-04 06:28N 17°08' W 061°51'0 0.0
2018-Jan-04 05:58N 17°08' W 061°51'0 0.0
2018-Jan-04 05:28N 17°08' W 061°51'0 0.0
2018-Jan-04 04:58N 17°08' W 061°51'0 0.0
2018-Jan-04 04:28N 17°08' W 061°51'0 0.0
2018-Jan-04 03:58N 17°08' W 061°51'0 0.0
2018-Jan-04 03:28N 17°08' W 061°51'0 0.0
2018-Jan-04 02:58N 17°08' W 061°51'0 0.0
2018-Jan-04 02:28N 17°08' W 061°51'0 0.0
2018-Jan-04 01:58N 17°08' W 061°51'0 0.0
2018-Jan-04 01:28N 17°08' W 061°51'0 0.0
2018-Jan-04 00:58N 17°08' W 061°51'0 0.0
2018-Jan-04 00:28N 17°08' W 061°51'0 0.0
2018-Jan-03 23:58N 17°08' W 061°51'0 0.0
2018-Jan-03 23:28N 17°08' W 061°51'0 0.0
2018-Jan-03 22:58N 17°08' W 061°51'0 0.0
2018-Jan-03 22:28N 17°08' W 061°51'0 0.0
2018-Jan-03 21:58N 17°08' W 061°51'0 0.0
2018-Jan-03 21:28N 17°08' W 061°51'0 0.0
2018-Jan-03 20:58N 17°08' W 061°51'0 0.0
2018-Jan-03 20:28N 17°08' W 061°51'0 0.0
2018-Jan-03 20:01N 17°08' W 061°51'0 0.6
2018-Jan-03 19:30N 17°08' W 061°52'3 5.6
2018-Jan-03 19:00N 17°09' W 061°54'4 8.2
2018-Jan-03 18:30N 17°13' W 061°54'611.8
2018-Jan-03 18:01N 17°16' W 061°49'611.8
2018-Jan-03 17:30N 17°20' W 061°44'611.7
2018-Jan-03 17:00N 17°23' W 061°38'611.7
2018-Jan-03 16:30N 17°25' W 061°33'611.7
2018-Jan-03 16:00N 17°28' W 061°28'611.9
2018-Jan-03 15:30N 17°32' W 061°23'611.8
2018-Jan-03 15:01N 17°35' W 061°17'611.8
2018-Jan-03 14:30N 17°38' W 061°12'611.8
2018-Jan-03 14:00N 17°41' W 061°07'611.9
2018-Jan-03 13:31N 17°44' W 061°01'612.0
2018-Jan-03 13:00N 17°47' W 060°56'711.8
2018-Jan-03 12:25N 17°51' W 060°50'511.7
2018-Jan-03 12:00N 17°54' W 060°46'611.9
2018-Jan-03 11:30N 17°57' W 060°41'611.8
2018-Jan-03 10:59N 18°00' W 060°35'711.5
2018-Jan-03 10:21N 18°04' W 060°29'  
Track history (hours):
 
Tides and Currents Weather Stations Pressure Air Temp Water Temp Dewpoint Dewpoint Depression Visibility Wind Speed Wind Dir Waves Ship Positions

BBC Gdansk

Last reported at 2018-Jan-12 11:46 UTC. Time now 2018-Jan-19 01:14 UTC.
Position N 26°06' W 080°07'.

Length 122 m; draft 7.2 m.

Type: Cargo ship. MMSI: 305372000.

Date/timePositionNaut miles runAvg speedWind from/ knotsBaromVisibWave heightAir tempDewpointWater temp
2018-Jan-12 11:46N 26°06' W 080°07'0 0.0
2018-Jan-12 11:28N 26°06' W 080°07'0 0.0
2018-Jan-12 09:07N 26°06' W 080°07'0 0.0
2018-Jan-12 08:52N 26°06' W 080°07'0 0.0
2018-Jan-12 08:22N 26°06' W 080°07'0 0.0
2018-Jan-11 11:28N 26°06' W 080°07'0 0.0
2018-Jan-11 09:25N 26°06' W 080°07'0 0.0
2018-Jan-11 08:57N 26°06' W 080°07'0 0.4
2018-Jan-11 08:30N 26°06' W 080°07'3 5.3
2018-Jan-11 08:01N 26°06' W 080°04'1 1.9
2018-Jan-11 07:30N 26°07' W 080°04'0 0.0
2018-Jan-11 06:57N 26°07' W 080°04'0 0.0
2018-Jan-11 06:30N 26°07' W 080°04'0 0.0
2018-Jan-11 06:00N 26°07' W 080°04'0 0.0
2018-Jan-11 05:30N 26°07' W 080°04'0 0.0
2018-Jan-11 05:00N 26°07' W 080°04'0 0.0
2018-Jan-11 04:30N 26°07' W 080°04'0 0.0
2018-Jan-11 04:00N 26°07' W 080°04'0 0.0
2018-Jan-11 03:30N 26°07' W 080°04'0 0.0
2018-Jan-11 03:00N 26°07' W 080°04'0 0.0
2018-Jan-11 02:30N 26°07' W 080°04'0 0.0
2018-Jan-11 02:00N 26°07' W 080°04'0 0.1
2018-Jan-11 01:30N 26°07' W 080°04'0 0.0
2018-Jan-11 01:00N 26°07' W 080°04'0 0.1
2018-Jan-11 00:30N 26°07' W 080°04'3 6.0
2018-Jan-11 00:00N 26°08' W 080°01'511.1
2018-Jan-10 23:30N 26°08' W 079°55'510.7
2018-Jan-10 23:00N 26°09' W 079°49'510.5
2018-Jan-10 22:30N 26°09' W 079°43'510.5
2018-Jan-10 22:00N 26°09' W 079°37'510.3
2018-Jan-10 21:30N 26°10' W 079°32'510.5
2018-Jan-10 21:01N 26°11' W 079°26'610.9
2018-Jan-10 20:30N 26°12' W 079°20'  
2018-Jan-06 23:20N 18°16' W 063°30'411.5
2018-Jan-06 22:59N 18°14' W 063°27'612.0
2018-Jan-06 22:30N 18°10' W 063°22'612.1
2018-Jan-06 22:00N 18°06' W 063°17'712.2
2018-Jan-06 21:26N 18°02' W 063°11'612.3
2018-Jan-06 20:58N 18°01' W 063°06'3 6.3
2018-Jan-06 20:30N 18°00' W 063°03'0 0.0
2018-Jan-06 19:55N 18°00' W 063°03'0 0.0
2018-Jan-06 19:25N 18°00' W 063°03'0 0.0
2018-Jan-06 18:58N 18°00' W 063°03'0 0.0
2018-Jan-06 18:25N 18°00' W 063°03'0 0.0
2018-Jan-06 17:58N 18°00' W 063°03'0 0.0
2018-Jan-06 17:25N 18°00' W 063°03'0 0.0
2018-Jan-06 16:55N 18°00' W 063°03'0 0.0
2018-Jan-06 16:28N 18°00' W 063°03'0 0.0
2018-Jan-06 15:58N 18°00' W 063°03'0 0.0
2018-Jan-06 15:28N 18°00' W 063°03'0 0.0
2018-Jan-06 14:58N 18°00' W 063°03'0 0.0
2018-Jan-06 14:16N 18°00' W 063°03'0 0.0
2018-Jan-06 13:58N 18°00' W 063°03'0 0.0
2018-Jan-06 13:28N 18°00' W 063°03'0 0.0
2018-Jan-06 12:49N 18°00' W 063°03'0 0.0
2018-Jan-06 12:04N 18°00' W 063°03'0 0.0
2018-Jan-06 11:49N 18°00' W 063°03'0 0.0
2018-Jan-06 11:19N 18°00' W 063°03'0 0.0
2018-Jan-06 10:52N 18°00' W 063°03'0 0.9
2018-Jan-06 10:28N 18°00' W 063°03'2 3.5
2018-Jan-06 09:53N 18°00' W 063°05'2 5.3
2018-Jan-06 09:27N 18°00' W 063°08'3 5.6
2018-Jan-06 08:59N 18°01' W 063°10'2 3.1
2018-Jan-06 08:20N 18°02' W 063°12'2 6.4
2018-Jan-06 08:01N 18°01' W 063°11'4 6.5
2018-Jan-06 07:27N 17°58' W 063°08'3 6.2
2018-Jan-06 07:00N 17°56' W 063°06'710.8
2018-Jan-06 06:19N 17°52' W 062°59'411.1
2018-Jan-06 05:58N 17°50' W 062°56'2410.9
2018-Jan-06 03:47N 17°36' W 062°36'310.9
2018-Jan-06 03:30N 17°35' W 062°33'510.8
2018-Jan-06 03:00N 17°32' W 062°28'510.8
2018-Jan-06 02:30N 17°29' W 062°23'510.9
2018-Jan-06 02:00N 17°26' W 062°19'611.2
2018-Jan-06 01:30N 17°23' W 062°14'611.1
2018-Jan-06 01:00N 17°19' W 062°09'510.8
2018-Jan-06 00:31N 17°16' W 062°05'510.7
2018-Jan-06 00:00N 17°13' W 061°60'4 7.5
2018-Jan-05 23:30N 17°11' W 061°57'5 9.9
2018-Jan-05 23:00N 17°08' W 061°53'1 2.6
2018-Jan-05 22:30N 17°08' W 061°51'0 0.0
2018-Jan-05 22:00N 17°08' W 061°51'0 0.0
2018-Jan-05 21:30N 17°08' W 061°51'0 0.0
2018-Jan-05 21:00N 17°08' W 061°51'0 0.0
2018-Jan-05 20:31N 17°08' W 061°51'0 0.0
2018-Jan-05 19:59N 17°08' W 061°51'0 0.0
2018-Jan-05 19:29N 17°08' W 061°51'0 0.0
2018-Jan-05 18:59N 17°08' W 061°51'0 0.0
2018-Jan-05 18:29N 17°08' W 061°51'0 0.0
2018-Jan-05 17:59N 17°08' W 061°51'0 0.0
2018-Jan-05 17:29N 17°08' W 061°51'0 0.0
2018-Jan-05 16:59N 17°08' W 061°51'0 0.0
2018-Jan-05 16:29N 17°08' W 061°51'0 0.0
2018-Jan-05 15:59N 17°08' W 061°51'0 0.0
2018-Jan-05 15:29N 17°08' W 061°51'0 0.0
2018-Jan-05 14:59N 17°08' W 061°51'0 0.0
2018-Jan-05 14:29N 17°08' W 061°51'0 0.0
2018-Jan-05 13:59N 17°08' W 061°51'0 0.0
2018-Jan-05 13:23N 17°08' W 061°51'0 0.0
2018-Jan-05 13:01N 17°08' W 061°51'0 0.0
2018-Jan-05 12:31N 17°08' W 061°51'0 0.0
2018-Jan-05 11:59N 17°08' W 061°51'0 0.0
2018-Jan-05 11:26N 17°08' W 061°51'0 0.0
2018-Jan-05 10:59N 17°08' W 061°51'0 0.1
2018-Jan-05 10:29N 17°07' W 061°51'0 0.0
2018-Jan-05 09:59N 17°07' W 061°51'0 0.0
2018-Jan-05 09:29N 17°07' W 061°51'0 0.0
2018-Jan-05 08:59N 17°07' W 061°51'0 0.0
2018-Jan-05 08:28N 17°07' W 061°51'0 0.0
2018-Jan-05 08:00N 17°07' W 061°51'0 0.0
2018-Jan-05 07:29N 17°07' W 061°51'0 0.0
2018-Jan-05 06:59N 17°07' W 061°51'0 0.0
2018-Jan-05 06:31N 17°07' W 061°51'0 0.0
2018-Jan-05 06:01N 17°07' W 061°51'0 0.0
2018-Jan-05 05:31N 17°07' W 061°51'0 0.0
2018-Jan-05 04:59N 17°07' W 061°51'0 0.0
2018-Jan-05 04:29N 17°07' W 061°51'0 0.0
2018-Jan-05 04:00N 17°07' W 061°51'0 0.0
2018-Jan-05 03:28N 17°07' W 061°51'0 0.0
2018-Jan-05 02:59N 17°07' W 061°51'0 0.0
2018-Jan-05 02:31N 17°07' W 061°51'0 0.0
2018-Jan-05 02:00N 17°07' W 061°51'0 0.0
2018-Jan-05 01:31N 17°07' W 061°51'0 0.0
2018-Jan-05 01:00N 17°07' W 061°51'0 0.0
2018-Jan-05 00:29N 17°07' W 061°51'0 0.0
2018-Jan-04 23:59N 17°07' W 061°51'0 0.0
2018-Jan-04 23:29N 17°07' W 061°51'0 0.0
2018-Jan-04 22:59N 17°07' W 061°51'0 0.0
2018-Jan-04 22:29N 17°07' W 061°51'0 0.0
2018-Jan-04 21:59N 17°07' W 061°51'0 0.0
2018-Jan-04 21:29N 17°07' W 061°51'0 0.0
2018-Jan-04 21:01N 17°07' W 061°51'0 0.0
2018-Jan-04 20:31N 17°07' W 061°51'0 0.0
2018-Jan-04 20:01N 17°07' W 061°51'0 0.0
2018-Jan-04 19:31N 17°07' W 061°51'0 0.0
2018-Jan-04 19:00N 17°07' W 061°51'0 0.0
2018-Jan-04 18:31N 17°07' W 061°51'0 0.0
2018-Jan-04 18:01N 17°07' W 061°51'0 0.0
2018-Jan-04 17:29N 17°07' W 061°51'0 0.0
2018-Jan-04 17:01N 17°07' W 061°51'0 0.0
2018-Jan-04 16:31N 17°07' W 061°51'0 0.0
2018-Jan-04 16:01N 17°07' W 061°51'0 0.1
2018-Jan-04 15:30N 17°07' W 061°51'0 0.1
2018-Jan-04 14:58N 17°08' W 061°51'0 0.0
2018-Jan-04 14:28N 17°08' W 061°51'0 0.0
2018-Jan-04 13:58N 17°08' W 061°51'0 0.1
2018-Jan-04 13:28N 17°07' W 061°51'0 0.1
2018-Jan-04 12:58N 17°08' W 061°51'0 0.0
2018-Jan-04 12:28N 17°08' W 061°51'0 0.0
2018-Jan-04 11:58N 17°08' W 061°51'0 0.0
2018-Jan-04 11:28N 17°08' W 061°51'0 0.0
2018-Jan-04 10:58N 17°08' W 061°51'0 0.0
2018-Jan-04 10:28N 17°08' W 061°51'0 0.0
2018-Jan-04 09:58N 17°08' W 061°51'0 0.0
2018-Jan-04 09:28N 17°08' W 061°51'0 0.0
2018-Jan-04 08:58N 17°08' W 061°51'0 0.0
2018-Jan-04 08:28N 17°08' W 061°51'0 0.0
2018-Jan-04 07:58N 17°08' W 061°51'0 0.0
2018-Jan-04 07:28N 17°08' W 061°51'0 0.0
2018-Jan-04 06:58N 17°08' W 061°51'0 0.0
2018-Jan-04 06:28N 17°08' W 061°51'0 0.0
2018-Jan-04 05:58N 17°08' W 061°51'0 0.0
2018-Jan-04 05:28N 17°08' W 061°51'0 0.0
2018-Jan-04 04:58N 17°08' W 061°51'0 0.0
2018-Jan-04 04:28N 17°08' W 061°51'0 0.0
2018-Jan-04 03:58N 17°08' W 061°51'0 0.0
2018-Jan-04 03:28N 17°08' W 061°51'0 0.0
2018-Jan-04 02:58N 17°08' W 061°51'0 0.0
2018-Jan-04 02:28N 17°08' W 061°51'0 0.0
2018-Jan-04 01:58N 17°08' W 061°51'0 0.0
2018-Jan-04 01:28N 17°08' W 061°51'0 0.0
2018-Jan-04 00:58N 17°08' W 061°51'0 0.0
2018-Jan-04 00:28N 17°08' W 061°51'0 0.0
2018-Jan-03 23:58N 17°08' W 061°51'0 0.0
2018-Jan-03 23:28N 17°08' W 061°51'0 0.0
2018-Jan-03 22:58N 17°08' W 061°51'0 0.0
2018-Jan-03 22:28N 17°08' W 061°51'0 0.0
2018-Jan-03 21:58N 17°08' W 061°51'0 0.0
2018-Jan-03 21:28N 17°08' W 061°51'0 0.0
2018-Jan-03 20:58N 17°08' W 061°51'0 0.0
2018-Jan-03 20:28N 17°08' W 061°51'0 0.0
2018-Jan-03 20:01N 17°08' W 061°51'0 0.6
2018-Jan-03 19:30N 17°08' W 061°52'3 5.6
2018-Jan-03 19:00N 17°09' W 061°54'4 8.2
2018-Jan-03 18:30N 17°13' W 061°54'611.8
2018-Jan-03 18:01N 17°16' W 061°49'611.8
2018-Jan-03 17:30N 17°20' W 061°44'611.7
2018-Jan-03 17:00N 17°23' W 061°38'611.7
2018-Jan-03 16:30N 17°25' W 061°33'611.7
2018-Jan-03 16:00N 17°28' W 061°28'611.9
2018-Jan-03 15:30N 17°32' W 061°23'611.8
2018-Jan-03 15:01N 17°35' W 061°17'611.8
2018-Jan-03 14:30N 17°38' W 061°12'611.8
2018-Jan-03 14:00N 17°41' W 061°07'611.9
2018-Jan-03 13:31N 17°44' W 061°01'612.0
2018-Jan-03 13:00N 17°47' W 060°56'711.8
2018-Jan-03 12:25N 17°51' W 060°50'511.7
2018-Jan-03 12:00N 17°54' W 060°46'611.9
2018-Jan-03 11:30N 17°57' W 060°41'611.8
2018-Jan-03 10:59N 18°00' W 060°35'711.5
2018-Jan-03 10:21N 18°04' W 060°29'  

Dump ship's entire track history